Time;durP1;ratioP1;P1;durP2;ratioP2;P2;SDS_P1;SDS_P2;PMS_P1;PMS_P2;Temp;Humidity;BMP_temperature;BMP_pressure;BME280_temperature;BME280_humidity;BME280_pressure;Samples;Min_cycle;Max_cycle;Signal;HPM_P1;HPM_P2
2023/06/08 00:01:02;;;;;;;12.17;9.43;;;13.80;99.90;;;;;;4993419;28;20544;-64
2023/06/08 00:03:30;;;;;;;12.77;8.63;;;13.70;99.90;;;;;;4997423;28;20491;-64
2023/06/08 00:06:00;;;;;;;13.20;9.10;;;13.70;99.90;;;;;;5001383;28;20475;-64
2023/06/08 00:08:30;;;;;;;15.57;10.40;;;13.70;99.90;;;;;;4992756;28;20487;-64
2023/06/08 00:10:58;;;;;;;17.37;10.20;;;13.60;99.90;;;;;;4993588;28;20482;-64
2023/06/08 00:13:26;;;;;;;15.43;9.67;;;13.60;99.90;;;;;;4984697;28;20581;-65
2023/06/08 00:15:54;;;;;;;14.13;9.37;;;13.50;99.90;;;;;;4992559;28;20594;-64
2023/06/08 00:18:22;;;;;;;12.33;8.97;;;13.40;99.90;;;;;;4992155;28;20564;-64
2023/06/08 00:20:51;;;;;;;16.17;9.93;;;13.30;99.90;;;;;;4999335;28;20472;-64
2023/06/08 00:23:21;;;;;;;13.53;9.33;;;13.30;99.90;;;;;;4994923;28;20561;-64
2023/06/08 00:25:49;;;;;;;11.80;9.07;;;13.30;99.90;;;;;;4999828;28;21047;-64
2023/06/08 00:28:18;;;;;;;11.60;9.20;;;13.30;99.90;;;;;;4995818;28;20484;-64
2023/06/08 00:30:46;;;;;;;11.80;9.10;;;13.30;99.90;;;;;;4998447;28;21335;-65
2023/06/08 00:33:14;;;;;;;16.57;9.70;;;13.30;99.90;;;;;;4988392;28;20491;-64
2023/06/08 00:35:42;;;;;;;15.00;9.77;;;13.40;99.90;;;;;;4988775;28;20480;-64
2023/06/08 00:38:10;;;;;;;13.80;10.07;;;13.30;99.90;;;;;;4990758;28;20929;-64
2023/06/08 00:40:39;;;;;;;13.00;10.00;;;13.20;99.90;;;;;;5013999;28;20448;-65
2023/06/08 00:43:07;;;;;;;11.57;9.00;;;13.20;99.90;;;;;;5004974;28;20544;-64
2023/06/08 00:45:35;;;;;;;16.87;10.33;;;13.10;99.90;;;;;;5004084;28;20543;-64
2023/06/08 00:48:04;;;;;;;13.13;10.17;;;13.10;99.90;;;;;;5002653;28;20496;-64
2023/06/08 00:50:33;;;;;;;12.90;9.73;;;13.00;99.90;;;;;;4990596;28;20702;-64
2023/06/08 00:53:01;;;;;;;14.23;10.13;;;13.00;99.90;;;;;;4989948;28;20564;-64
2023/06/08 00:55:33;;;;;;;15.67;11.17;;;13.00;99.90;;;;;;4993275;28;20575;-64
2023/06/08 00:58:03;;;;;;;14.90;10.30;;;12.80;99.90;;;;;;4988508;28;20476;-64
2023/06/08 01:00:32;;;;;;;14.10;10.77;;;12.80;99.90;;;;;;4985210;28;20484;-66
2023/06/08 01:03:00;;;;;;;13.27;10.60;;;12.80;99.90;;;;;;4995438;28;20486;-63
2023/06/08 01:05:28;;;;;;;13.80;10.77;;;12.80;99.90;;;;;;4999464;28;20530;-64
2023/06/08 01:08:05;;;;;;;12.50;9.70;;;12.70;99.90;;;;;;4998603;28;20465;-63
2023/06/08 01:10:39;;;;;;;13.73;10.77;;;12.60;99.90;;;;;;4990131;28;20478;-64
2023/06/08 01:13:13;;;;;;;15.80;10.80;;;12.60;99.90;;;;;;4994078;28;20592;-64
2023/06/08 01:15:45;;;;;;;15.37;10.27;;;12.70;99.90;;;;;;4999270;28;21072;-64
2023/06/08 01:18:17;;;;;;;15.83;11.30;;;12.60;99.90;;;;;;4999080;28;20475;-64
2023/06/08 01:21:02;;;;;;;16.27;11.77;;;12.50;99.90;;;;;;4999932;28;20917;-64
2023/06/08 01:23:44;;;;;;;14.83;11.57;;;12.40;99.90;;;;;;4998188;28;20618;-64
2023/06/08 01:26:15;;;;;;;13.87;10.67;;;12.30;99.90;;;;;;4996280;28;20613;-64
2023/06/08 01:28:47;;;;;;;15.40;10.80;;;12.40;99.90;;;;;;4996874;28;20994;-64
2023/06/08 01:31:16;;;;;;;16.73;11.20;;;12.40;99.90;;;;;;4995879;28;20609;-64
2023/06/08 01:33:44;;;;;;;14.17;11.33;;;12.40;99.90;;;;;;4991530;28;20866;-65
2023/06/08 01:36:20;;;;;;;15.53;11.40;;;12.50;99.90;;;;;;4989257;28;20925;-64
2023/06/08 01:38:54;;;;;;;17.53;10.80;;;12.50;99.90;;;;;;4997692;28;20472;-64
2023/06/08 01:41:27;;;;;;;17.30;12.20;;;12.50;99.90;;;;;;4990145;28;20519;-63
2023/06/08 01:43:59;;;;;;;16.27;11.63;;;12.40;99.90;;;;;;4992232;28;20519;-64
2023/06/08 01:46:30;;;;;;;15.13;12.33;;;12.40;99.90;;;;;;4997059;28;20519;-64
2023/06/08 01:49:02;;;;;;;15.93;11.93;;;12.40;99.90;;;;;;5002457;28;20544;-64
2023/06/08 01:51:31;;;;;;;18.47;12.00;;;12.50;99.90;;;;;;5014786;28;20480;-66
2023/06/08 01:54:01;;;;;;;17.37;12.67;;;12.40;99.90;;;;;;4998384;28;20496;-65
2023/06/08 01:56:31;;;;;;;17.70;13.53;;;12.30;99.90;;;;;;4994127;28;20532;-63
2023/06/08 01:59:00;;;;;;;18.00;14.10;;;12.10;99.90;;;;;;4989097;28;20559;-64
2023/06/08 02:01:28;;;;;;;16.87;12.03;;;12.20;99.90;;;;;;4991691;28;20555;-64
2023/06/08 02:03:56;;;;;;;15.30;11.80;;;12.10;99.90;;;;;;4993827;28;20990;-64
2023/06/08 02:06:24;;;;;;;15.63;11.40;;;12.10;99.90;;;;;;4992981;28;20528;-64
2023/06/08 02:08:52;;;;;;;13.77;10.67;;;12.00;99.90;;;;;;4992127;28;20743;-64
2023/06/08 02:11:22;;;;;;;13.50;10.73;;;12.00;99.90;;;;;;4996278;28;20493;-64
2023/06/08 02:13:51;;;;;;;15.13;11.33;;;12.00;99.90;;;;;;4991634;28;20503;-64
2023/06/08 02:16:19;;;;;;;14.17;10.80;;;12.10;99.90;;;;;;4995643;28;21419;-64
2023/06/08 02:18:49;;;;;;;16.20;11.03;;;11.80;99.90;;;;;;4989276;28;20503;-64
2023/06/08 02:21:18;;;;;;;16.73;10.73;;;11.80;99.90;;;;;;4993463;28;20558;-64
2023/06/08 02:23:46;;;;;;;13.73;11.40;;;11.70;99.90;;;;;;4992549;28;20500;-64
2023/06/08 02:26:16;;;;;;;13.43;10.03;;;11.60;99.90;;;;;;4995378;28;20485;-63
2023/06/08 02:28:44;;;;;;;11.33;9.60;;;11.60;99.90;;;;;;4991821;28;20564;-64
2023/06/08 02:31:13;;;;;;;15.40;10.73;;;11.70;99.90;;;;;;4998006;28;20567;-64
2023/06/08 02:33:41;;;;;;;16.10;11.40;;;11.70;99.90;;;;;;5007562;28;20480;-65
2023/06/08 02:36:09;;;;;;;14.60;12.43;;;11.70;99.90;;;;;;5020775;28;20457;-64
2023/06/08 02:38:39;;;;;;;15.37;11.40;;;11.60;99.90;;;;;;4996755;28;20473;-64
2023/06/08 02:41:07;;;;;;;15.00;11.53;;;11.70;99.90;;;;;;4991655;28;20588;-64
2023/06/08 02:43:35;;;;;;;15.70;11.00;;;11.70;99.90;;;;;;4990298;28;20501;-64
2023/06/08 02:46:03;;;;;;;14.50;12.27;;;11.60;99.90;;;;;;4995835;28;20555;-63
2023/06/08 02:48:33;;;;;;;14.70;12.83;;;11.60;99.90;;;;;;4991492;28;20484;-64
2023/06/08 02:51:01;;;;;;;17.60;12.60;;;11.70;99.90;;;;;;4994129;28;21479;-64
2023/06/08 02:53:29;;;;;;;18.80;12.50;;;11.70;99.90;;;;;;4995595;28;20567;-64
2023/06/08 02:55:58;;;;;;;14.00;11.17;;;11.60;99.90;;;;;;4992127;28;21044;-64
2023/06/08 02:58:26;;;;;;;14.17;12.17;;;11.50;99.90;;;;;;4987811;28;20830;-64
2023/06/08 03:00:54;;;;;;;14.90;12.30;;;11.60;99.90;;;;;;4992974;28;20500;-64
2023/06/08 03:03:44;;;;;;;15.53;12.17;;;11.50;99.90;;;;;;4986979;28;20868;-64
2023/06/08 03:06:17;;;;;;;17.97;14.03;;;11.50;99.90;;;;;;4994165;28;20472;-64
2023/06/08 03:08:46;;;;;;;16.80;13.50;;;11.60;99.90;;;;;;4987041;28;20501;-64
2023/06/08 03:11:15;;;;;;;16.60;14.20;;;11.60;99.90;;;;;;4987243;28;20508;-64
2023/06/08 03:13:43;;;;;;;17.73;13.10;;;11.60;99.90;;;;;;4985951;28;20575;-64
2023/06/08 03:16:13;;;;;;;19.03;13.23;;;11.70;99.90;;;;;;4988543;28;21459;-65
2023/06/08 03:18:41;;;;;;;20.90;14.67;;;11.70;99.90;;;;;;4992714;28;20985;-61
2023/06/08 03:21:12;;;;;;;18.27;15.13;;;11.70;99.90;;;;;;4987518;28;20488;-61
2023/06/08 03:23:40;;;;;;;19.20;14.50;;;11.60;99.90;;;;;;4985050;28;20521;-61
2023/06/08 03:26:08;;;;;;;23.30;15.63;;;11.60;99.90;;;;;;4989702;28;20795;-62
2023/06/08 03:28:36;;;;;;;19.30;15.77;;;11.50;99.90;;;;;;4991229;28;20566;-61
2023/06/08 03:31:04;;;;;;;21.03;15.87;;;11.40;99.90;;;;;;4991687;28;20587;-62
2023/06/08 03:33:32;;;;;;;21.40;16.63;;;11.40;99.90;;;;;;4985419;28;20525;-62
2023/06/08 03:36:01;;;;;;;17.47;14.93;;;11.30;99.90;;;;;;4982853;28;20879;-63
2023/06/08 03:38:31;;;;;;;18.27;15.33;;;11.30;99.90;;;;;;4987497;28;20464;-64
2023/06/08 03:41:02;;;;;;;17.80;15.60;;;11.30;99.90;;;;;;4989311;28;20560;-64
2023/06/08 03:43:30;;;;;;;17.43;15.43;;;11.30;99.90;;;;;;4991887;28;20845;-63
2023/06/08 03:45:58;;;;;;;19.20;16.10;;;11.30;99.90;;;;;;4990413;28;20540;-64
2023/06/08 03:48:26;;;;;;;20.97;14.90;;;11.40;99.90;;;;;;4994007;28;20465;-64
2023/06/08 03:50:54;;;;;;;21.90;15.70;;;11.50;99.90;;;;;;4996524;28;20560;-64
2023/06/08 03:53:22;;;;;;;19.47;15.70;;;11.60;99.90;;;;;;4989541;28;20841;-64
2023/06/08 03:55:51;;;;;;;21.70;16.93;;;11.60;99.90;;;;;;4998290;28;20596;-64
2023/06/08 03:58:19;;;;;;;18.63;15.70;;;11.60;99.90;;;;;;4997987;28;20559;-64
2023/06/08 04:00:49;;;;;;;19.10;15.90;;;11.50;99.90;;;;;;4988641;28;20476;-65
2023/06/08 04:03:17;;;;;;;20.67;16.50;;;11.50;99.90;;;;;;4988188;28;20511;-64
2023/06/08 04:05:45;;;;;;;18.87;15.63;;;11.50;99.90;;;;;;4989893;28;20460;-65
2023/06/08 04:08:13;;;;;;;19.13;16.20;;;11.60;99.90;;;;;;4991011;28;21072;-64
2023/06/08 04:10:41;;;;;;;20.33;16.50;;;11.60;99.90;;;;;;4997753;28;20464;-65
2023/06/08 04:13:10;;;;;;;22.70;17.70;;;11.60;99.90;;;;;;5018022;28;20892;-64
2023/06/08 04:15:38;;;;;;;19.90;16.20;;;11.60;99.90;;;;;;5004705;28;20567;-64
2023/06/08 04:18:06;;;;;;;22.90;16.73;;;11.60;99.90;;;;;;4995039;28;20530;-64
2023/06/08 04:20:35;;;;;;;18.80;16.23;;;11.60;99.90;;;;;;4996759;28;20472;-64
2023/06/08 04:23:03;;;;;;;22.07;16.87;;;11.60;99.90;;;;;;4994794;28;20512;-64
2023/06/08 04:25:31;;;;;;;22.10;16.53;;;11.70;99.90;;;;;;4991454;28;20479;-64
2023/06/08 04:27:59;;;;;;;23.90;18.33;;;11.70;99.90;;;;;;4992377;28;20855;-63
2023/06/08 04:30:29;;;;;;;22.37;16.47;;;11.60;99.90;;;;;;4999500;28;21021;-65
2023/06/08 04:32:57;;;;;;;22.27;15.73;;;11.60;99.90;;;;;;4994985;28;20492;-64
2023/06/08 04:35:25;;;;;;;19.63;15.87;;;11.60;99.90;;;;;;4999535;28;20503;-63
2023/06/08 04:37:53;;;;;;;20.47;16.47;;;11.60;99.90;;;;;;5019206;28;20471;-66
2023/06/08 04:40:21;;;;;;;22.20;17.67;;;11.50;99.90;;;;;;5009385;28;20464;-64
2023/06/08 04:42:51;;;;;;;23.47;16.90;;;11.50;99.90;;;;;;4991065;28;20496;-64
2023/06/08 04:45:20;;;;;;;21.47;17.30;;;11.40;99.90;;;;;;4998617;28;20470;-64
2023/06/08 04:47:51;;;;;;;21.97;16.57;;;11.40;99.90;;;;;;4995538;28;20644;-63
2023/06/08 04:50:19;;;;;;;24.30;15.90;;;11.40;99.90;;;;;;4993295;28;20473;-64
2023/06/08 04:52:47;;;;;;;17.30;14.67;;;11.40;99.90;;;;;;4991094;28;20557;-62
2023/06/08 04:55:16;;;;;;;19.50;15.20;;;11.40;99.90;;;;;;4987658;28;20771;-62
2023/06/08 04:57:44;;;;;;;25.90;16.57;;;11.50;99.90;;;;;;4991763;28;20622;-62
2023/06/08 05:00:13;;;;;;;21.97;16.87;;;11.50;99.90;;;;;;4990465;28;20870;-63
2023/06/08 05:02:42;;;;;;;24.10;17.43;;;11.50;99.90;;;;;;4986176;28;20520;-62
2023/06/08 05:05:12;;;;;;;22.67;17.40;;;11.40;99.90;;;;;;4987927;28;20530;-62
2023/06/08 05:07:42;;;;;;;19.30;16.60;;;11.50;99.90;;;;;;4987310;28;20472;-62
2023/06/08 05:10:10;;;;;;;22.10;17.43;;;11.60;99.90;;;;;;4987536;28;20468;-62
2023/06/08 05:12:38;;;;;;;19.07;16.10;;;11.70;99.90;;;;;;4984732;28;20547;-62
2023/06/08 05:15:07;;;;;;;28.47;21.00;;;11.70;99.90;;;;;;4978415;28;20472;-64
2023/06/08 05:17:35;;;;;;;24.50;18.60;;;11.70;99.90;;;;;;4987830;28;21041;-64
2023/06/08 05:20:06;;;;;;;20.67;16.80;;;11.70;99.90;;;;;;4975743;28;20500;-64
2023/06/08 05:22:36;;;;;;;24.93;17.70;;;11.70;99.90;;;;;;4981960;28;20991;-65
2023/06/08 05:25:07;;;;;;;25.20;18.80;;;11.80;99.90;;;;;;4991905;28;20469;-64
2023/06/08 05:27:37;;;;;;;25.10;18.87;;;11.80;99.90;;;;;;4987308;28;20547;-66
2023/06/08 05:30:05;;;;;;;23.90;18.03;;;11.80;99.90;;;;;;4988792;28;20573;-64
2023/06/08 05:32:34;;;;;;;21.67;15.87;;;11.90;99.90;;;;;;4986984;28;20485;-64
2023/06/08 05:35:02;;;;;;;22.43;16.60;;;11.90;99.90;;;;;;4988781;28;20491;-64
2023/06/08 05:37:30;;;;;;;20.73;16.83;;;11.90;99.90;;;;;;4986795;28;21365;-66
2023/06/08 05:40:00;;;;;;;26.40;18.60;;;12.00;99.90;;;;;;4994157;28;20477;-63
2023/06/08 05:42:28;;;;;;;21.73;17.87;;;12.00;99.90;;;;;;4991932;28;20489;-64
2023/06/08 05:44:56;;;;;;;20.60;16.90;;;12.10;99.90;;;;;;4991088;28;20500;-64
2023/06/08 05:47:24;;;;;;;25.27;17.87;;;12.10;99.90;;;;;;4989573;28;20498;-65
2023/06/08 05:49:58;;;;;;;23.37;18.30;;;12.10;99.90;;;;;;4990538;28;20564;-63
2023/06/08 05:52:26;;;;;;;22.87;18.80;;;12.20;99.90;;;;;;4984138;28;20501;-64
2023/06/08 05:55:00;;;;;;;24.37;18.70;;;12.20;99.90;;;;;;4997589;28;20882;-63
2023/06/08 05:57:29;;;;;;;24.27;18.20;;;12.20;99.90;;;;;;4993049;28;20596;-64
2023/06/08 06:00:00;;;;;;;23.63;17.70;;;12.20;99.90;;;;;;4997083;28;20508;-64
2023/06/08 06:02:28;;;;;;;22.60;18.87;;;12.10;99.90;;;;;;4988710;28;20496;-64
2023/06/08 06:04:56;;;;;;;20.73;17.23;;;12.10;99.90;;;;;;4988456;28;20475;-65
2023/06/08 06:07:25;;;;;;;29.60;19.17;;;12.10;99.90;;;;;;4984461;28;20495;-64
2023/06/08 06:09:53;;;;;;;27.20;20.50;;;12.20;99.90;;;;;;4994092;28;21020;-64
2023/06/08 06:12:21;;;;;;;28.33;19.53;;;12.20;99.90;;;;;;4998904;28;20498;-63
2023/06/08 06:14:52;;;;;;;25.07;19.63;;;12.30;99.90;;;;;;4994599;28;20894;-63
2023/06/08 06:17:20;;;;;;;22.57;18.93;;;12.40;99.90;;;;;;4988846;28;20491;-63
2023/06/08 06:19:48;;;;;;;25.80;19.17;;;12.40;99.90;;;;;;4997801;28;20477;-63
2023/06/08 06:22:17;;;;;;;25.43;18.77;;;12.50;99.90;;;;;;4990793;28;20992;-64
2023/06/08 06:24:45;;;;;;;24.83;18.00;;;12.50;99.90;;;;;;4994847;28;20560;-63
2023/06/08 06:27:13;;;;;;;21.97;16.43;;;12.60;99.90;;;;;;4994130;28;21017;-63
2023/06/08 06:29:41;;;;;;;20.77;17.63;;;12.70;99.90;;;;;;4990030;28;20552;-63
2023/06/08 06:32:11;;;;;;;22.60;17.53;;;12.60;99.90;;;;;;4998872;28;20576;-64
2023/06/08 06:34:39;;;;;;;22.70;17.87;;;12.70;99.90;;;;;;4993940;28;20867;-64
2023/06/08 06:37:07;;;;;;;22.67;17.60;;;12.80;99.90;;;;;;4996812;28;20579;-71
2023/06/08 06:39:35;;;;;;;23.13;18.77;;;12.80;99.90;;;;;;4996857;28;20905;-71
2023/06/08 06:42:03;;;;;;;20.60;17.60;;;12.90;99.90;;;;;;4996018;28;20586;-71
2023/06/08 06:44:31;;;;;;;22.07;17.27;;;12.80;99.90;;;;;;5005683;28;21051;-71
2023/06/08 06:46:59;;;;;;;23.27;17.20;;;12.90;99.90;;;;;;5016867;28;20501;-71
2023/06/08 06:49:29;;;;;;;22.50;16.10;;;12.90;99.90;;;;;;5020205;28;20487;-71
2023/06/08 06:51:56;;;;;;;20.60;16.77;;;13.00;99.90;;;;;;5001738;28;20485;-72
2023/06/08 06:54:25;;;;;;;21.37;16.43;;;13.00;99.90;;;;;;4997930;28;20468;-65
2023/06/08 06:56:53;;;;;;;23.30;17.63;;;13.10;99.90;;;;;;4999106;28;20529;-64
2023/06/08 06:59:22;;;;;;;21.53;17.40;;;13.20;99.90;;;;;;4997979;28;21001;-64
2023/06/08 07:01:50;;;;;;;21.30;16.77;;;13.30;99.90;;;;;;4993610;28;20588;-64
2023/06/08 07:04:21;;;;;;;22.47;17.30;;;13.30;99.90;;;;;;4992205;28;20579;-64
2023/06/08 07:06:54;;;;;;;21.10;16.67;;;13.40;99.90;;;;;;4991658;28;21438;-64
2023/06/08 07:09:23;;;;;;;21.80;17.63;;;13.50;99.90;;;;;;4992126;28;20551;-64
2023/06/08 07:11:51;;;;;;;23.47;19.77;;;13.60;99.90;;;;;;4995918;28;20575;-66
2023/06/08 07:14:39;;;;;;;22.90;19.03;;;13.60;99.90;;;;;;4998407;28;20461;-63
2023/06/08 07:17:07;;;;;;;23.83;18.20;;;13.70;99.90;;;;;;4995988;28;21059;-63
2023/06/08 07:19:35;;;;;;;22.60;18.17;;;13.70;99.90;;;;;;4994644;28;20499;-63
2023/06/08 07:22:06;;;;;;;21.70;18.43;;;13.80;99.90;;;;;;4988715;28;20566;-63
2023/06/08 07:24:54;;;;;;;19.87;17.07;;;13.90;99.90;;;;;;4993169;28;20848;-64
2023/06/08 07:27:44;;;;;;;24.13;20.07;;;14.00;99.90;;;;;;4988760;28;20460;-64
2023/06/08 07:30:13;;;;;;;26.93;19.23;;;14.10;99.90;;;;;;4994444;28;20471;-65
2023/06/08 07:32:43;;;;;;;22.10;17.93;;;14.20;99.90;;;;;;4985268;28;21175;-64
2023/06/08 07:35:11;;;;;;;25.20;20.90;;;14.30;99.90;;;;;;4986439;28;20484;-64
2023/06/08 07:37:40;;;;;;;28.17;19.87;;;14.30;99.90;;;;;;4989749;28;20485;-64
2023/06/08 07:40:11;;;;;;;22.23;18.43;;;14.30;99.90;;;;;;4991312;28;20476;-64
2023/06/08 07:42:39;;;;;;;22.70;19.33;;;14.30;99.90;;;;;;4989119;28;20570;-64
2023/06/08 07:45:07;;;;;;;27.40;21.77;;;14.40;99.90;;;;;;4996038;28;21005;-64
2023/06/08 07:47:36;;;;;;;24.90;20.40;;;14.40;99.90;;;;;;4993760;28;20896;-63
2023/06/08 07:50:05;;;;;;;22.47;20.07;;;14.50;99.90;;;;;;4997880;28;20930;-63
2023/06/08 07:52:34;;;;;;;25.67;19.63;;;14.50;99.90;;;;;;4995339;28;20492;-63
2023/06/08 07:55:05;;;;;;;25.50;20.47;;;14.60;99.90;;;;;;4997325;28;20476;-63
2023/06/08 07:57:36;;;;;;;24.43;20.83;;;14.70;99.90;;;;;;4998790;28;20484;-64
2023/06/08 08:00:05;;;;;;;21.37;18.27;;;14.80;99.90;;;;;;4993780;28;20593;-64
2023/06/08 08:02:33;;;;;;;23.90;20.70;;;14.80;99.90;;;;;;4994327;28;20493;-64
2023/06/08 08:05:02;;;;;;;24.47;20.70;;;14.90;99.90;;;;;;4992113;28;21108;-64
2023/06/08 08:07:30;;;;;;;22.63;20.00;;;15.00;99.90;;;;;;4990082;28;20465;-66
2023/06/08 08:09:59;;;;;;;24.43;20.37;;;15.20;99.90;;;;;;5011146;28;20511;-63
2023/06/08 08:12:28;;;;;;;22.70;20.30;;;15.30;99.90;;;;;;4988117;28;20585;-64
2023/06/08 08:14:56;;;;;;;28.23;21.77;;;15.40;99.90;;;;;;4994643;28;20531;-64
2023/06/08 08:17:24;;;;;;;23.67;19.60;;;15.50;99.90;;;;;;4998589;28;20912;-63
2023/06/08 08:19:52;;;;;;;20.97;18.77;;;15.60;99.90;;;;;;4992339;28;20508;-64
2023/06/08 08:22:21;;;;;;;23.60;18.80;;;15.70;99.90;;;;;;4991091;28;20507;-63
2023/06/08 08:24:49;;;;;;;21.00;18.30;;;15.80;99.90;;;;;;4994531;28;20469;-64
2023/06/08 08:27:18;;;;;;;24.80;18.83;;;16.00;99.90;;;;;;4995336;28;20501;-63
2023/06/08 08:29:47;;;;;;;22.40;18.70;;;16.10;99.90;;;;;;4992776;28;20475;-64
2023/06/08 08:32:15;;;;;;;23.63;19.70;;;16.20;99.90;;;;;;4995366;28;20488;-64
2023/06/08 08:34:43;;;;;;;23.30;19.40;;;16.30;99.90;;;;;;4989089;28;20527;-64
2023/06/08 08:37:11;;;;;;;21.43;19.03;;;16.50;99.90;;;;;;4997288;28;20464;-63
2023/06/08 08:39:39;;;;;;;21.93;18.70;;;16.60;99.90;;;;;;4994716;28;20567;-63
2023/06/08 08:42:11;;;;;;;21.10;18.77;;;16.70;99.90;;;;;;4992995;28;20503;-64
2023/06/08 08:44:41;;;;;;;22.70;20.03;;;16.80;99.90;;;;;;5002881;28;20553;-64
2023/06/08 08:47:14;;;;;;;22.00;19.60;;;17.00;99.90;;;;;;5003736;28;20594;-64
2023/06/08 08:49:43;;;;;;;22.23;19.27;;;17.10;99.90;;;;;;5019744;28;20480;-64
2023/06/08 08:52:11;;;;;;;22.27;20.07;;;17.20;99.90;;;;;;5007692;28;20596;-64
2023/06/08 08:54:40;;;;;;;24.13;20.80;;;17.20;99.90;;;;;;5000162;28;20974;-64
2023/06/08 08:57:09;;;;;;;21.57;19.40;;;17.30;99.90;;;;;;4995408;28;20546;-64
2023/06/08 08:59:38;;;;;;;23.07;20.57;;;17.40;99.90;;;;;;4996556;28;20511;-64
2023/06/08 09:02:07;;;;;;;22.17;19.03;;;17.60;99.90;;;;;;4997829;28;20914;-64
2023/06/08 09:04:36;;;;;;;21.13;18.97;;;17.70;99.90;;;;;;4997809;28;20484;-63
2023/06/08 09:07:05;;;;;;;21.80;19.70;;;17.70;99.90;;;;;;4997098;28;20473;-64
2023/06/08 09:09:33;;;;;;;21.73;19.50;;;17.80;99.90;;;;;;4999108;28;20594;-64
2023/06/08 09:12:03;;;;;;;21.00;18.90;;;17.90;99.90;;;;;;4990566;28;21024;-64
2023/06/08 09:14:31;;;;;;;22.87;20.43;;;18.00;99.90;;;;;;4993983;28;20475;-63
2023/06/08 09:16:59;;;;;;;24.73;20.10;;;18.10;99.90;;;;;;4996037;28;20564;-63
2023/06/08 09:19:29;;;;;;;22.30;20.00;;;18.20;99.90;;;;;;4997324;28;20488;-63
2023/06/08 09:21:59;;;;;;;22.37;19.37;;;18.30;99.90;;;;;;4992975;28;20762;-63
2023/06/08 09:24:27;;;;;;;21.60;19.50;;;18.30;99.90;;;;;;5010254;28;20556;-63
2023/06/08 09:26:58;;;;;;;22.57;19.23;;;18.50;99.90;;;;;;4997090;28;20473;-63
2023/06/08 09:29:36;;;;;;;26.43;20.30;;;18.70;99.90;;;;;;4999629;28;20472;-63
2023/06/08 09:32:05;;;;;;;21.40;19.30;;;18.80;99.90;;;;;;4997617;28;20976;-62
2023/06/08 09:34:49;;;;;;;19.90;18.00;;;18.90;99.90;;;;;;4997328;28;21036;-63
2023/06/08 09:37:19;;;;;;;23.67;19.30;;;19.00;99.90;;;;;;5008933;28;20567;-63
2023/06/08 09:39:47;;;;;;;20.63;18.53;;;19.20;99.90;;;;;;5012464;28;20493;-64
2023/06/08 09:42:15;;;;;;;23.93;19.90;;;19.20;99.90;;;;;;5010048;28;20489;-63
2023/06/08 09:44:43;;;;;;;21.20;18.87;;;19.30;99.90;;;;;;5014060;28;20492;-63
2023/06/08 09:47:26;;;;;;;20.50;18.17;;;19.50;99.90;;;;;;5015617;28;20480;-63
2023/06/08 09:49:55;;;;;;;19.30;17.60;;;19.50;99.90;;;;;;5012688;28;20514;-64
2023/06/08 09:52:25;;;;;;;18.70;16.73;;;19.70;99.90;;;;;;5012213;28;20516;-64
2023/06/08 09:54:53;;;;;;;18.40;16.60;;;19.80;99.90;;;;;;5015601;28;21031;-64
2023/06/08 09:57:21;;;;;;;18.77;17.07;;;20.00;99.90;;;;;;5011407;28;20465;-64
2023/06/08 09:59:54;;;;;;;18.77;16.87;;;20.10;99.90;;;;;;5013218;28;20496;-63
2023/06/08 10:02:29;;;;;;;18.00;16.30;;;20.20;99.90;;;;;;5012634;28;21002;-64
2023/06/08 10:05:03;;;;;;;18.60;16.80;;;20.30;99.90;;;;;;5005002;28;21073;-64
2023/06/08 10:07:36;;;;;;;19.57;17.50;;;20.40;99.90;;;;;;5006328;28;20464;-63
2023/06/08 10:10:11;;;;;;;17.30;15.80;;;20.40;99.90;;;;;;4996449;28;20472;-63
2023/06/08 10:12:39;;;;;;;17.13;15.47;;;20.60;99.90;;;;;;4993436;28;21100;-63
2023/06/08 10:15:09;;;;;;;16.17;14.73;;;20.70;99.90;;;;;;4999374;28;20976;-63
2023/06/08 10:17:38;;;;;;;14.10;12.77;;;20.80;99.90;;;;;;4996282;28;20562;-62
2023/06/08 10:20:07;;;;;;;13.97;12.53;;;20.90;99.90;;;;;;4993727;28;20496;-63
2023/06/08 10:22:39;;;;;;;14.90;13.60;;;21.00;99.90;;;;;;4994361;28;20998;-63
2023/06/08 10:25:08;;;;;;;14.67;13.27;;;21.10;99.90;;;;;;4994917;28;20468;-63
2023/06/08 10:27:37;;;;;;;15.90;12.63;;;21.20;99.90;;;;;;4998200;28;20477;-63
2023/06/08 10:30:06;;;;;;;13.13;11.90;;;21.30;99.90;;;;;;4997281;28;20887;-63
2023/06/08 10:32:36;;;;;;;11.57;10.60;;;21.40;99.90;;;;;;4990196;28;20499;-63
2023/06/08 10:35:06;;;;;;;12.33;11.23;;;21.50;99.90;;;;;;4998221;28;20483;-63
2023/06/08 10:37:38;;;;;;;12.43;11.23;;;21.60;99.90;;;;;;4996132;28;20468;-63
2023/06/08 10:40:11;;;;;;;11.77;10.57;;;21.60;99.90;;;;;;5000306;28;20571;-63
2023/06/08 10:42:51;;;;;;;12.97;11.80;;;21.60;99.90;;;;;;4999122;28;20499;-63
2023/06/08 10:45:31;;;;;;;12.53;11.33;;;21.80;99.90;;;;;;4995947;28;20475;-63
2023/06/08 10:48:08;;;;;;;11.40;9.33;;;21.90;99.90;;;;;;4997072;28;20464;-63
2023/06/08 10:50:40;;;;;;;11.20;10.13;;;22.00;99.90;;;;;;4996838;28;20472;-63
2023/06/08 10:53:10;;;;;;;9.73;8.83;;;22.20;99.90;;;;;;4993523;28;20905;-64
2023/06/08 10:55:38;;;;;;;9.53;8.63;;;22.30;99.90;;;;;;4998598;28;20472;-63
2023/06/08 10:58:07;;;;;;;9.47;8.40;;;22.50;99.90;;;;;;4995896;28;20468;-63
2023/06/08 11:00:45;;;;;;;8.00;7.27;;;22.60;99.90;;;;;;4999290;28;20599;-64
2023/06/08 11:03:18;;;;;;;9.13;7.00;;;22.80;99.90;;;;;;4996518;28;21087;-65
2023/06/08 11:05:52;;;;;;;8.33;7.40;;;23.00;99.90;;;;;;5002523;28;20494;-66
2023/06/08 11:08:22;;;;;;;7.70;6.97;;;23.00;99.90;;;;;;4997822;28;20480;-64
2023/06/08 11:10:53;;;;;;;7.90;6.30;;;23.00;99.90;;;;;;4999675;28;20908;-64
2023/06/08 11:13:22;;;;;;;8.83;7.00;;;23.20;99.90;;;;;;4994721;28;20531;-67
2023/06/08 11:15:50;;;;;;;6.93;5.87;;;23.30;99.90;;;;;;5004177;28;20898;-64
2023/06/08 11:18:20;;;;;;;6.63;5.93;;;23.50;99.90;;;;;;5003979;28;20569;-64
2023/06/08 11:20:48;;;;;;;6.00;5.40;;;23.60;99.90;;;;;;4988550;28;20632;-64
2023/06/08 11:23:17;;;;;;;7.20;5.43;;;23.80;99.90;;;;;;4997345;28;21024;-64
2023/06/08 11:25:48;;;;;;;6.30;5.70;;;24.00;99.90;;;;;;4996086;28;20468;-64
2023/06/08 11:28:16;;;;;;;7.37;6.20;;;24.20;99.90;;;;;;4997017;28;20563;-64
2023/06/08 11:30:44;;;;;;;6.23;5.63;;;24.40;99.90;;;;;;4991151;28;20464;-64
2023/06/08 11:33:14;;;;;;;5.80;5.30;;;24.50;99.90;;;;;;4990918;28;20513;-63
2023/06/08 11:35:43;;;;;;;5.60;4.83;;;24.60;99.90;;;;;;4995916;28;20564;-63
2023/06/08 11:38:12;;;;;;;7.40;6.13;;;24.60;99.90;;;;;;4995506;28;20481;-63
2023/06/08 11:40:42;;;;;;;7.03;5.97;;;24.70;99.90;;;;;;4997991;28;20488;-63
2023/06/08 11:43:13;;;;;;;5.90;5.30;;;24.80;99.90;;;;;;4996759;28;20583;-63
2023/06/08 11:45:42;;;;;;;5.90;5.20;;;24.90;99.90;;;;;;4993204;28;20480;-63
2023/06/08 11:48:11;;;;;;;6.47;4.90;;;24.90;99.90;;;;;;4995530;28;21053;-63
2023/06/08 11:50:48;;;;;;;7.77;5.63;;;25.10;99.90;;;;;;5001194;28;20527;-63
2023/06/08 11:53:22;;;;;;;6.80;5.17;;;25.20;99.90;;;;;;5012213;28;20500;-63
2023/06/08 11:55:52;;;;;;;7.73;5.13;;;25.40;99.90;;;;;;5013822;28;20463;-65
2023/06/08 11:58:26;;;;;;;8.80;5.77;;;25.50;99.90;;;;;;5003135;28;20900;-64
2023/06/08 12:01:09;;;;;;;5.87;5.10;;;25.60;99.90;;;;;;4984710;28;20511;-64
2023/06/08 12:03:44;;;;;;;7.70;5.50;;;25.70;99.90;;;;;;4990979;28;20569;-63
2023/06/08 12:06:14;;;;;;;6.50;4.90;;;25.80;98.10;;;;;;4983519;28;20482;-63
2023/06/08 12:08:42;;;;;;;5.47;4.97;;;25.90;94.20;;;;;;4989617;28;20476;-63
2023/06/08 12:11:13;;;;;;;6.00;5.40;;;26.10;93.50;;;;;;4992735;28;20488;-63
2023/06/08 12:13:43;;;;;;;5.53;4.93;;;26.10;90.00;;;;;;4990834;28;20506;-64
2023/06/08 12:16:12;;;;;;;7.30;5.37;;;26.10;97.10;;;;;;4992145;28;20476;-63
2023/06/08 12:18:42;;;;;;;6.93;4.93;;;26.20;89.20;;;;;;4984883;28;20473;-63
2023/06/08 12:21:13;;;;;;;5.60;4.90;;;26.20;93.20;;;;;;4990628;28;20611;-63
2023/06/08 12:23:42;;;;;;;5.43;4.93;;;26.40;93.90;;;;;;4990701;28;20499;-63
2023/06/08 12:26:10;;;;;;;5.60;4.83;;;26.50;94.40;;;;;;4995963;28;20487;-63
2023/06/08 12:28:38;;;;;;;8.40;5.97;;;26.70;93.80;;;;;;4989317;28;21056;-64
2023/06/08 12:31:08;;;;;;;6.50;5.20;;;26.90;85.10;;;;;;4986221;28;20856;-63
2023/06/08 12:33:36;;;;;;;6.00;5.23;;;27.00;87.20;;;;;;4980299;28;21082;-64
2023/06/08 12:36:05;;;;;;;5.03;4.63;;;27.20;92.10;;;;;;4992449;28;20504;-64
2023/06/08 12:38:36;;;;;;;7.23;5.50;;;27.30;78.30;;;;;;4988040;28;20603;-64
2023/06/08 12:41:04;;;;;;;6.33;5.73;;;27.40;75.30;;;;;;4994160;28;20527;-64
2023/06/08 12:43:32;;;;;;;6.27;5.57;;;27.40;73.80;;;;;;4989528;28;21040;-64